NORTHEAST SUFFOLK  -  Rip Current Statement Rip Current Statement        NORTHERN NASSAU  -  Rip Current Statement Rip Current Statement        NORTHERN QUEENS  -  Rip Current Statement Rip Current Statement        NORTHWEST SUFFOLK  -  Rip Current Statement Rip Current Statement        SOUTHEAST SUFFOLK  -  Rip Current Statement Rip Current Statement        SOUTHERN NASSAU  -  Rip Current Statement Rip Current Statement        SOUTHERN QUEENS  -  Rip Current Statement Rip Current Statement        SOUTHWEST SUFFOLK  -  Rip Current Statement Rip Current Statement      

Active alerts

Northern Queens
  Details for Northern Queens Rip Current Statement
Southern Queens
  Details for Southern Queens Rip Current Statement
Northern Nassau
  Details for Northern Nassau Rip Current Statement
Southern Nassau
  Details for Southern Nassau Rip Current Statement
Northwest Suffolk
  Details for Northwest Suffolk Rip Current Statement
Southwest Suffolk
  Details for Southwest Suffolk Rip Current Statement
Northeast Suffolk
  Details for Northeast Suffolk Rip Current Statement
Southeast Suffolk
  Details for Southeast Suffolk Rip Current Statement


WXM80 ListenWXM80 Stop

You find our weather info also at:

UK Metoffice

WeatherCloud

Weather Underground

Northeastern Weather Network

AWEKAS

Citizen Weather Observer Program (CWOP)

HAMweather, WeatherForYou, PWS Weather


Weather Underground History page Text

Daily Summary for November 11, 2017 Units:  Both    English   Metric
« Previous Day
Next Day »
Daily Weekly Monthly Yearly Custom
  High: Low: Average:
Temperature: 39.5 °F /  4.2 °C 25.8 °F /  -3.4 °C 31.2 °F /  -0.4 °C
Dew Point: 24.9 °F /  -3.9 °C 15.0 °F /  -9.4 °C 18.9 °F /  -7.3 °C
Humidity: 82 % 42 % 61 %
Wind Speed: 8.2 mph /  13.2 km/h - 2.5 mph /  4 km/h
Wind Gust: 19.6 mph /  31.5 km/h - -
Wind:- - SW
Pressure: 30.55 in /  1034.4 hPa 30.26 in /  1024.6 hPa -
Precipitation: 0.00 in /  0 mm    
Historical Graphs
 
 
Tabular Data for November 11, 2017
Time Temperature Dew Point Pressure Wind Wind Speed Wind Gust Humidity Rainfall Rate (Hourly)
00:04 27.2 °F /  -2.7 °C 15.1 °F /  -9.4 °C 30.46 in /  1031.4 hPa WNW 2.4 mph /  3.9 km/h 13.8 mph /  22.2 km/h 60 % 0.00 in /  0 mm
00:08 27.1 °F /  -2.7 °C 15.0 °F /  -9.4 °C 30.46 in /  1031.4 hPa North 5.6 mph /  9 km/h 11.5 mph /  18.5 km/h 60 % 0.00 in /  0 mm
00:13 27.2 °F /  -2.7 °C 15.9 °F /  -8.9 °C 30.46 in /  1031.4 hPa WSW 0.8 mph /  1.3 km/h 9.2 mph /  14.8 km/h 62 % 0.00 in /  0 mm
00:18 27.2 °F /  -2.7 °C 15.5 °F /  -9.2 °C 30.46 in /  1031.4 hPa North 7.8 mph /  12.6 km/h 17.3 mph /  27.8 km/h 61 % 0.00 in /  0 mm
00:23 27.2 °F /  -2.7 °C 15.5 °F /  -9.2 °C 30.45 in /  1031 hPa NE 5.0 mph /  8 km/h 6.9 mph /  11.1 km/h 61 % 0.00 in /  0 mm
00:29 27.2 °F /  -2.7 °C 15.9 °F /  -8.9 °C 30.45 in /  1031 hPa NNW 7.7 mph /  12.4 km/h 11.5 mph /  18.5 km/h 62 % 0.00 in /  0 mm
00:34 27.2 °F /  -2.7 °C 15.9 °F /  -8.9 °C 30.47 in /  1031.7 hPa North 5.0 mph /  8 km/h 12.0 mph /  19.3 km/h 62 % 0.00 in /  0 mm
00:39 27.2 °F /  -2.7 °C 15.9 °F /  -8.9 °C 30.46 in /  1031.4 hPa NNW 5.8 mph /  9.3 km/h 10.4 mph /  16.7 km/h 62 % 0.00 in /  0 mm
00:44 27.1 °F /  -2.7 °C 15.4 °F /  -9.2 °C 30.46 in /  1031.4 hPa NW 4.6 mph /  7.4 km/h 13.8 mph /  22.2 km/h 61 % 0.00 in /  0 mm
00:49 27.2 °F /  -2.7 °C 16.3 °F /  -8.7 °C 30.44 in /  1030.7 hPa West 5.7 mph /  9.2 km/h 9.2 mph /  14.8 km/h 63 % 0.00 in /  0 mm
00:54 27.1 °F /  -2.7 °C 16.2 °F /  -8.8 °C 30.44 in /  1030.7 hPa NW 3.9 mph /  6.3 km/h 8.1 mph /  13 km/h 63 % 0.00 in /  0 mm
00:55 27.2 °F /  -2.7 °C 16.3 °F /  -8.7 °C 30.45 in /  1031 hPa NNW 3.8 mph /  6.1 km/h 8.1 mph /  13 km/h 63 % 0.00 in /  0 mm
01:00 27.1 °F /  -2.7 °C 15.4 °F /  -9.2 °C 30.45 in /  1031 hPa NNW 6.8 mph /  10.9 km/h 11.5 mph /  18.5 km/h 61 % 0.00 in /  0 mm
01:05 27.1 °F /  -2.7 °C 15.4 °F /  -9.2 °C 30.45 in /  1031 hPa NW 4.6 mph /  7.4 km/h 10.4 mph /  16.7 km/h 61 % 0.00 in /  0 mm
01:10 27.1 °F /  -2.7 °C 15.4 °F /  -9.2 °C 30.44 in /  1030.7 hPa NNW 3.7 mph /  6 km/h 11.5 mph /  18.5 km/h 61 % 0.00 in /  0 mm
01:15 27.1 °F /  -2.7 °C 15.8 °F /  -9 °C 30.44 in /  1030.7 hPa WNW 6.0 mph /  9.7 km/h 10.4 mph /  16.7 km/h 62 % 0.00 in /  0 mm
01:20 27.1 °F /  -2.7 °C 15.4 °F /  -9.2 °C 30.45 in /  1031 hPa NW 3.0 mph /  4.8 km/h 8.1 mph /  13 km/h 61 % 0.00 in /  0 mm
01:25 27.1 °F /  -2.7 °C 15.4 °F /  -9.2 °C 30.45 in /  1031 hPa NNW 6.8 mph /  10.9 km/h 10.4 mph /  16.7 km/h 61 % 0.00 in /  0 mm
01:30 27.1 °F /  -2.7 °C 15.4 °F /  -9.2 °C 30.45 in /  1031 hPa NNE 6.4 mph /  10.3 km/h 10.4 mph /  16.7 km/h 61 % 0.00 in /  0 mm
01:35 27.1 °F /  -2.7 °C 15.4 °F /  -9.2 °C 30.46 in /  1031.4 hPa NNE 8.2 mph /  13.2 km/h 10.4 mph /  16.7 km/h 61 % 0.00 in /  0 mm
01:40 27.1 °F /  -2.7 °C 15.8 °F /  -9 °C 30.46 in /  1031.4 hPa NNW 5.0 mph /  8 km/h 9.2 mph /  14.8 km/h 62 % 0.00 in /  0 mm
01:45 27.1 °F /  -2.7 °C 16.5 °F /  -8.6 °C 30.46 in /  1031.4 hPa NW 6.0 mph /  9.7 km/h 9.2 mph /  14.8 km/h 64 % 0.00 in /  0 mm
01:50 27.1 °F /  -2.7 °C 15.8 °F /  -9 °C 30.47 in /  1031.7 hPa NNW 6.4 mph /  10.3 km/h 11.5 mph /  18.5 km/h 62 % 0.00 in /  0 mm
01:55 27.1 °F /  -2.7 °C 15.8 °F /  -9 °C 30.46 in /  1031.4 hPa NNW 5.0 mph /  8 km/h 12.0 mph /  19.3 km/h 62 % 0.00 in /  0 mm
02:00 27.1 °F /  -2.7 °C 15.8 °F /  -9 °C 30.46 in /  1031.4 hPa WNW 2.9 mph /  4.7 km/h 5.8 mph /  9.3 km/h 62 % 0.00 in /  0 mm
02:01 27.1 °F /  -2.7 °C 15.8 °F /  -9 °C 30.46 in /  1031.4 hPa WNW 3.8 mph /  6.1 km/h 10.0 mph /  16.1 km/h 62 % 0.00 in /  0 mm
02:06 27.0 °F /  -2.8 °C 16.1 °F /  -8.8 °C 30.46 in /  1031.4 hPa NW 4.5 mph /  7.2 km/h 10.4 mph /  16.7 km/h 63 % 0.00 in /  0 mm
02:11 27.0 °F /  -2.8 °C 16.4 °F /  -8.7 °C 30.45 in /  1031 hPa WNW 4.9 mph /  7.9 km/h 12.7 mph /  20.4 km/h 64 % 0.00 in /  0 mm
02:16 26.9 °F /  -2.8 °C 16.3 °F /  -8.7 °C 30.46 in /  1031.4 hPa North 3.3 mph /  5.3 km/h 10.4 mph /  16.7 km/h 64 % 0.00 in /  0 mm
02:21 26.8 °F /  -2.9 °C 16.2 °F /  -8.8 °C 30.46 in /  1031.4 hPa NW 3.5 mph /  5.6 km/h 7.0 mph /  11.3 km/h 64 % 0.00 in /  0 mm
02:26 26.8 °F /  -2.9 °C 16.6 °F /  -8.6 °C 30.46 in /  1031.4 hPa NNW 2.1 mph /  3.4 km/h 6.0 mph /  9.7 km/h 65 % 0.00 in /  0 mm
02:31 26.8 °F /  -2.9 °C 17.0 °F /  -8.3 °C 30.46 in /  1031.4 hPa NNW 1.6 mph /  2.6 km/h 8.1 mph /  13 km/h 66 % 0.00 in /  0 mm
02:36 26.8 °F /  -2.9 °C 17.3 °F /  -8.2 °C 30.46 in /  1031.4 hPa NNW 2.7 mph /  4.3 km/h 11.5 mph /  18.5 km/h 67 % 0.00 in /  0 mm
02:41 26.7 °F /  -2.9 °C 16.9 °F /  -8.4 °C 30.45 in /  1031 hPa WNW 2.0 mph /  3.2 km/h 10.4 mph /  16.7 km/h 66 % 0.00 in /  0 mm
02:46 26.8 °F /  -2.9 °C 17.3 °F /  -8.2 °C 30.45 in /  1031 hPa NW 4.4 mph /  7.1 km/h 7.0 mph /  11.3 km/h 67 % 0.00 in /  0 mm
02:52 26.8 °F /  -2.9 °C 17.3 °F /  -8.2 °C 30.45 in /  1031 hPa NW 4.6 mph /  7.4 km/h 6.9 mph /  11.1 km/h 67 % 0.00 in /  0 mm
02:57 26.8 °F /  -2.9 °C 17.0 °F /  -8.3 °C 30.45 in /  1031 hPa WNW 1.5 mph /  2.4 km/h 11.5 mph /  18.5 km/h 66 % 0.00 in /  0 mm
03:02 26.8 °F /  -2.9 °C 17.0 °F /  -8.3 °C 30.45 in /  1031 hPa WNW 5.8 mph /  9.3 km/h 12.7 mph /  20.4 km/h 66 % 0.00 in /  0 mm
03:07 26.8 °F /  -2.9 °C 17.3 °F /  -8.2 °C 30.45 in /  1031 hPa WNW 4.7 mph /  7.6 km/h 9.0 mph /  14.5 km/h 67 % 0.00 in /  0 mm
03:12 26.7 °F /  -2.9 °C 16.9 °F /  -8.4 °C 30.45 in /  1031 hPa WSW 5.9 mph /  9.5 km/h 14.0 mph /  22.5 km/h 66 % 0.00 in /  0 mm
03:17 26.7 °F /  -2.9 °C 17.2 °F /  -8.2 °C 30.46 in /  1031.4 hPa NNW 5.7 mph /  9.2 km/h 12.0 mph /  19.3 km/h 67 % 0.00 in /  0 mm
03:22 26.7 °F /  -2.9 °C 17.2 °F /  -8.2 °C 30.45 in /  1031 hPa ENE 6.9 mph /  11.1 km/h 10.4 mph /  16.7 km/h 67 % 0.00 in /  0 mm
03:27 26.8 °F /  -2.9 °C 17.0 °F /  -8.3 °C 30.45 in /  1031 hPa NNW 5.0 mph /  8 km/h 19.6 mph /  31.5 km/h 66 % 0.00 in /  0 mm
03:32 26.8 °F /  -2.9 °C 17.3 °F /  -8.2 °C 30.45 in /  1031 hPa NW 4.8 mph /  7.7 km/h 15.0 mph /  24.1 km/h 67 % 0.00 in /  0 mm
03:37 26.9 °F /  -2.8 °C 18.1 °F /  -7.7 °C 30.46 in /  1031.4 hPa NW 6.5 mph /  10.5 km/h 11.5 mph /  18.5 km/h 69 % 0.00 in /  0 mm
03:42 27.0 °F /  -2.8 °C 17.8 °F /  -7.9 °C 30.46 in /  1031.4 hPa NW 5.0 mph /  8 km/h 8.1 mph /  13 km/h 68 % 0.00 in /  0 mm
03:47 27.0 °F /  -2.8 °C 17.8 °F /  -7.9 °C 30.46 in /  1031.4 hPa WNW 3.0 mph /  4.8 km/h 8.1 mph /  13 km/h 68 % 0.00 in /  0 mm
03:52 27.0 °F /  -2.8 °C 17.8 °F /  -7.9 °C 30.46 in /  1031.4 hPa NNW 4.8 mph /  7.7 km/h 8.1 mph /  13 km/h 68 % 0.00 in /  0 mm
03:57 27.1 °F /  -2.7 °C 18.3 °F /  -7.6 °C 30.47 in /  1031.7 hPa NW 6.5 mph /  10.5 km/h 11.5 mph /  18.5 km/h 69 % 0.00 in /  0 mm
04:02 27.1 °F /  -2.7 °C 18.3 °F /  -7.6 °C 30.48 in /  1032.1 hPa NNW 4.8 mph /  7.7 km/h 11.5 mph /  18.5 km/h 69 % 0.00 in /  0 mm
04:07 27.1 °F /  -2.7 °C 18.6 °F /  -7.4 °C 30.49 in /  1032.4 hPa West 7.7 mph /  12.4 km/h 11.5 mph /  18.5 km/h 70 % 0.00 in /  0 mm
04:12 27.1 °F /  -2.7 °C 18.6 °F /  -7.4 °C 30.49 in /  1032.4 hPa WNW 4.4 mph /  7.1 km/h 8.1 mph /  13 km/h 70 % 0.00 in /  0 mm
04:17 27.1 °F /  -2.7 °C 18.6 °F /  -7.4 °C 30.49 in /  1032.4 hPa WNW 2.9 mph /  4.7 km/h 5.8 mph /  9.3 km/h 70 % 0.00 in /  0 mm
04:22 27.1 °F /  -2.7 °C 18.3 °F /  -7.6 °C 30.49 in /  1032.4 hPa WNW 3.3 mph /  5.3 km/h 5.8 mph /  9.3 km/h 69 % 0.00 in /  0 mm
04:27 27.1 °F /  -2.7 °C 18.3 °F /  -7.6 °C 30.49 in /  1032.4 hPa West 5.7 mph /  9.2 km/h 8.1 mph /  13 km/h 69 % 0.00 in /  0 mm
04:32 27.0 °F /  -2.8 °C 18.2 °F /  -7.7 °C 30.50 in /  1032.7 hPa NW 2.5 mph /  4 km/h 6.9 mph /  11.1 km/h 69 % 0.00 in /  0 mm
04:37 26.9 °F /  -2.8 °C 18.1 °F /  -7.7 °C 30.49 in /  1032.4 hPa NNW 4.3 mph /  6.9 km/h 8.1 mph /  13 km/h 69 % 0.00 in /  0 mm
04:42 26.9 °F /  -2.8 °C 18.4 °F /  -7.6 °C 30.49 in /  1032.4 hPa WNW 1.8 mph /  2.9 km/h 3.5 mph /  5.6 km/h 70 % 0.00 in /  0 mm
04:47 26.8 °F /  -2.9 °C 18.7 °F /  -7.4 °C 30.50 in /  1032.7 hPa WNW 3.6 mph /  5.8 km/h 7.0 mph /  11.3 km/h 71 % 0.00 in /  0 mm
04:52 26.7 °F /  -2.9 °C 18.2 °F /  -7.7 °C 30.50 in /  1032.7 hPa NW 3.3 mph /  5.3 km/h 7.0 mph /  11.3 km/h 70 % 0.00 in /  0 mm
04:57 26.7 °F /  -2.9 °C 18.6 °F /  -7.4 °C 30.50 in /  1032.7 hPa NNW 3.5 mph /  5.6 km/h 5.8 mph /  9.3 km/h 71 % 0.00 in /  0 mm
05:02 26.6 °F /  -3 °C 18.1 °F /  -7.7 °C 30.50 in /  1032.7 hPa NNW 3.3 mph /  5.3 km/h 6.0 mph /  9.7 km/h 70 % 0.00 in /  0 mm
05:04 26.6 °F /  -3 °C 18.1 °F /  -7.7 °C 30.50 in /  1032.7 hPa WNW 6.3 mph /  10.1 km/h 11.5 mph /  18.5 km/h 70 % 0.00 in /  0 mm
05:09 26.5 °F /  -3.1 °C 17.7 °F /  -7.9 °C 30.50 in /  1032.7 hPa North 2.7 mph /  4.3 km/h 5.8 mph /  9.3 km/h 69 % 0.00 in /  0 mm
05:14 26.5 °F /  -3.1 °C 17.7 °F /  -7.9 °C 30.50 in /  1032.7 hPa NW 4.3 mph /  6.9 km/h 8.1 mph /  13 km/h 69 % 0.00 in /  0 mm
05:19 26.5 °F /  -3.1 °C 18.0 °F /  -7.8 °C 30.50 in /  1032.7 hPa NNW 1.7 mph /  2.7 km/h 4.0 mph /  6.4 km/h 70 % 0.00 in /  0 mm
05:24 26.5 °F /  -3.1 °C 17.7 °F /  -7.9 °C 30.50 in /  1032.7 hPa WNW 2.0 mph /  3.2 km/h 8.1 mph /  13 km/h 69 % 0.00 in /  0 mm
05:29 26.4 °F /  -3.1 °C 17.6 °F /  -8 °C 30.50 in /  1032.7 hPa NW 3.1 mph /  5 km/h 5.8 mph /  9.3 km/h 69 % 0.00 in /  0 mm
05:34 26.4 °F /  -3.1 °C 17.6 °F /  -8 °C 30.50 in /  1032.7 hPa NW 4.1 mph /  6.6 km/h 5.8 mph /  9.3 km/h 69 % 0.00 in /  0 mm
05:39 26.3 °F /  -3.2 °C 17.5 °F /  -8.1 °C 30.50 in /  1032.7 hPa NNE 2.9 mph /  4.7 km/h 10.0 mph /  16.1 km/h 69 % 0.00 in /  0 mm
05:44 26.3 °F /  -3.2 °C 17.2 °F /  -8.2 °C 30.50 in /  1032.7 hPa NNW 4.0 mph /  6.4 km/h 6.9 mph /  11.1 km/h 68 % 0.00 in /  0 mm
05:49 26.2 °F /  -3.2 °C 17.4 °F /  -8.1 °C 30.50 in /  1032.7 hPa NNE 3.3 mph /  5.3 km/h 6.9 mph /  11.1 km/h 69 % 0.00 in /  0 mm
05:54 26.2 °F /  -3.2 °C 17.7 °F /  -7.9 °C 30.50 in /  1032.7 hPa NNW 3.2 mph /  5.1 km/h 6.0 mph /  9.7 km/h 70 % 0.00 in /  0 mm
05:59 26.2 °F /  -3.2 °C 17.7 °F /  -7.9 °C 30.51 in /  1033.1 hPa NW 1.8 mph /  2.9 km/h 3.5 mph /  5.6 km/h 70 % 0.00 in /  0 mm
06:04 26.1 °F /  -3.3 °C 17.6 °F /  -8 °C 30.51 in /  1033.1 hPa WNW 3.7 mph /  6 km/h 9.2 mph /  14.8 km/h 70 % 0.00 in /  0 mm
06:09 26.1 °F /  -3.3 °C 17.6 °F /  -8 °C 30.51 in /  1033.1 hPa NE 5.5 mph /  8.9 km/h 6.0 mph /  9.7 km/h 70 % 0.00 in /  0 mm
06:14 26.1 °F /  -3.3 °C 17.3 °F /  -8.2 °C 30.50 in /  1032.7 hPa North 2.4 mph /  3.9 km/h 5.8 mph /  9.3 km/h 69 % 0.00 in /  0 mm
06:19 26.0 °F /  -3.3 °C 16.9 °F /  -8.4 °C 30.50 in /  1032.7 hPa North 1.4 mph /  2.3 km/h 6.9 mph /  11.1 km/h 68 % 0.00 in /  0 mm
06:24 26.0 °F /  -3.3 °C 17.2 °F /  -8.2 °C 30.50 in /  1032.7 hPa NNW 4.6 mph /  7.4 km/h 8.0 mph /  12.9 km/h 69 % 0.00 in /  0 mm
06:29 25.9 °F /  -3.4 °C 16.8 °F /  -8.4 °C 30.51 in /  1033.1 hPa NNE 2.1 mph /  3.4 km/h 9.2 mph /  14.8 km/h 68 % 0.00 in /  0 mm
06:35 25.8 °F /  -3.4 °C 17.0 °F /  -8.3 °C 30.51 in /  1033.1 hPa NNW 2.6 mph /  4.2 km/h 9.2 mph /  14.8 km/h 69 % 0.00 in /  0 mm
06:40 25.8 °F /  -3.4 °C 17.0 °F /  -8.3 °C 30.51 in /  1033.1 hPa NW 4.3 mph /  6.9 km/h 9.2 mph /  14.8 km/h 69 % 0.00 in /  0 mm
06:45 25.8 °F /  -3.4 °C 17.0 °F /  -8.3 °C 30.51 in /  1033.1 hPa NNW 3.5 mph /  5.6 km/h 5.8 mph /  9.3 km/h 69 % 0.00 in /  0 mm
06:50 25.8 °F /  -3.4 °C 17.4 °F /  -8.1 °C 30.51 in /  1033.1 hPa NNE 3.2 mph /  5.1 km/h 7.0 mph /  11.3 km/h 70 % 0.00 in /  0 mm
06:55 25.9 °F /  -3.4 °C 17.5 °F /  -8.1 °C 30.52 in /  1033.4 hPa NNE 4.2 mph /  6.8 km/h 8.1 mph /  13 km/h 70 % 0.00 in /  0 mm
07:00 26.0 °F /  -3.3 °C 16.9 °F /  -8.4 °C 30.52 in /  1033.4 hPa ENE 4.6 mph /  7.4 km/h 6.9 mph /  11.1 km/h 68 % 0.00 in /  0 mm
07:05 26.1 °F /  -3.3 °C 16.6 °F /  -8.6 °C 30.53 in /  1033.7 hPa NNE 4.3 mph /  6.9 km/h 6.9 mph /  11.1 km/h 67 % 0.00 in /  0 mm
07:10 26.1 °F /  -3.3 °C 16.6 °F /  -8.6 °C 30.54 in /  1034.1 hPa WNW 3.7 mph /  6 km/h 8.1 mph /  13 km/h 67 % 0.00 in /  0 mm
07:15 26.2 °F /  -3.2 °C 16.4 °F /  -8.7 °C 30.53 in /  1033.7 hPa NNW 3.0 mph /  4.8 km/h 6.0 mph /  9.7 km/h 66 % 0.00 in /  0 mm
07:20 26.2 °F /  -3.2 °C 16.0 °F /  -8.9 °C 30.53 in /  1033.7 hPa North 6.5 mph /  10.5 km/h 11.5 mph /  18.5 km/h 65 % 0.00 in /  0 mm
07:25 26.3 °F /  -3.2 °C 15.4 °F /  -9.2 °C 30.53 in /  1033.7 hPa North 7.6 mph /  12.2 km/h 11.5 mph /  18.5 km/h 63 % 0.00 in /  0 mm
07:30 26.4 °F /  -3.1 °C 15.5 °F /  -9.2 °C 30.53 in /  1033.7 hPa NNW 0.9 mph /  1.4 km/h 5.8 mph /  9.3 km/h 63 % 0.00 in /  0 mm
07:36 26.5 °F /  -3.1 °C 16.7 °F /  -8.5 °C 30.53 in /  1033.7 hPa NNW 3.0 mph /  4.8 km/h 12.0 mph /  19.3 km/h 66 % 0.00 in /  0 mm
07:41 26.6 °F /  -3 °C 15.7 °F /  -9.1 °C 30.53 in /  1033.7 hPa NNW 2.0 mph /  3.2 km/h 10.0 mph /  16.1 km/h 63 % 0.00 in /  0 mm
07:46 26.6 °F /  -3 °C 15.0 °F /  -9.4 °C 30.53 in /  1033.7 hPa North 6.0 mph /  9.7 km/h 9.0 mph /  14.5 km/h 61 % 0.00 in /  0 mm
07:51 26.7 °F /  -2.9 °C 15.4 °F /  -9.2 °C 30.53 in /  1033.7 hPa North 7.0 mph /  11.3 km/h 12.0 mph /  19.3 km/h 62 % 0.00 in /  0 mm
07:56 26.8 °F /  -2.9 °C 15.1 °F /  -9.4 °C 30.54 in /  1034.1 hPa North 5.0 mph /  8 km/h 10.0 mph /  16.1 km/h 61 % 0.00 in /  0 mm
08:01 26.9 °F /  -2.8 °C 15.6 °F /  -9.1 °C 30.54 in /  1034.1 hPa NW 3.7 mph /  6 km/h 6.9 mph /  11.1 km/h 62 % 0.00 in /  0 mm
08:06 27.0 °F /  -2.8 °C 15.7 °F /  -9.1 °C 30.54 in /  1034.1 hPa North 4.1 mph /  6.6 km/h 11.5 mph /  18.5 km/h 62 % 0.00 in /  0 mm
08:11 27.0 °F /  -2.8 °C 15.3 °F /  -9.3 °C 30.54 in /  1034.1 hPa NNE 5.7 mph /  9.2 km/h 10.4 mph /  16.7 km/h 61 % 0.00 in /  0 mm
08:16 27.2 °F /  -2.7 °C 15.9 °F /  -8.9 °C 30.54 in /  1034.1 hPa NNE 6.8 mph /  10.9 km/h 9.2 mph /  14.8 km/h 62 % 0.00 in /  0 mm
08:21 27.3 °F /  -2.6 °C 15.6 °F /  -9.1 °C 30.54 in /  1034.1 hPa North 5.7 mph /  9.2 km/h 11.0 mph /  17.7 km/h 61 % 0.00 in /  0 mm
08:26 27.4 °F /  -2.6 °C 15.7 °F /  -9.1 °C 30.54 in /  1034.1 hPa NNE 4.0 mph /  6.4 km/h 10.4 mph /  16.7 km/h 61 % 0.00 in /  0 mm
08:31 27.5 °F /  -2.5 °C 15.8 °F /  -9 °C 30.55 in /  1034.4 hPa NNW 2.5 mph /  4 km/h 3.5 mph /  5.6 km/h 61 % 0.00 in /  0 mm
08:36 27.7 °F /  -2.4 °C 15.6 °F /  -9.1 °C 30.55 in /  1034.4 hPa North 4.6 mph /  7.4 km/h 8.1 mph /  13 km/h 60 % 0.00 in /  0 mm
08:41 28.1 °F /  -2.2 °C 16.4 °F /  -8.7 °C 30.55 in /  1034.4 hPa North 6.1 mph /  9.8 km/h 9.2 mph /  14.8 km/h 61 % 0.00 in /  0 mm
08:46 28.6 °F /  -1.9 °C 17.2 °F /  -8.2 °C 30.54 in /  1034.1 hPa NW 2.4 mph /  3.9 km/h 6.9 mph /  11.1 km/h 62 % 0.00 in /  0 mm
08:51 29.1 °F /  -1.6 °C 17.3 °F /  -8.2 °C 30.55 in /  1034.4 hPa NNE 4.1 mph /  6.6 km/h 6.0 mph /  9.7 km/h 61 % 0.00 in /  0 mm
08:56 29.7 °F /  -1.3 °C 17.5 °F /  -8.1 °C 30.54 in /  1034.1 hPa North 2.0 mph /  3.2 km/h 5.8 mph /  9.3 km/h 60 % 0.00 in /  0 mm
09:01 30.3 °F /  -0.9 °C 17.7 °F /  -7.9 °C 30.54 in /  1034.1 hPa NW 1.6 mph /  2.6 km/h 9.2 mph /  14.8 km/h 59 % 0.00 in /  0 mm
09:06 30.7 °F /  -0.7 °C 17.7 °F /  -7.9 °C 30.54 in /  1034.1 hPa North 2.9 mph /  4.7 km/h 5.8 mph /  9.3 km/h 58 % 0.00 in /  0 mm
09:11 31.2 °F /  -0.4 °C 18.5 °F /  -7.5 °C 30.54 in /  1034.1 hPa North 3.1 mph /  5 km/h 7.0 mph /  11.3 km/h 59 % 0.00 in /  0 mm
09:16 31.6 °F /  -0.2 °C 18.1 °F /  -7.7 °C 30.54 in /  1034.1 hPa North 5.9 mph /  9.5 km/h 9.2 mph /  14.8 km/h 57 % 0.00 in /  0 mm
09:21 32.0 °F /  0 °C 18.9 °F /  -7.3 °C 30.54 in /  1034.1 hPa WNW 3.8 mph /  6.1 km/h 6.9 mph /  11.1 km/h 58 % 0.00 in /  0 mm
09:26 32.6 °F /  0.3 °C 18.6 °F /  -7.4 °C 30.54 in /  1034.1 hPa North 5.7 mph /  9.2 km/h 9.2 mph /  14.8 km/h 56 % 0.00 in /  0 mm
09:31 33.1 °F /  0.6 °C 18.2 °F /  -7.7 °C 30.54 in /  1034.1 hPa NNE 2.6 mph /  4.2 km/h 4.0 mph /  6.4 km/h 54 % 0.00 in /  0 mm
09:41 34.1 °F /  1.2 °C 18.7 °F /  -7.4 °C 30.54 in /  1034.1 hPa North 3.8 mph /  6.1 km/h 8.1 mph /  13 km/h 53 % 0.00 in /  0 mm
09:46 34.3 °F /  1.3 °C 18.9 °F /  -7.3 °C 30.54 in /  1034.1 hPa North 2.3 mph /  3.7 km/h 7.0 mph /  11.3 km/h 53 % 0.00 in /  0 mm
09:51 34.9 °F /  1.6 °C 19.5 °F /  -6.9 °C 30.54 in /  1034.1 hPa NNW 2.0 mph /  3.2 km/h 6.9 mph /  11.1 km/h 53 % 0.00 in /  0 mm
09:56 35.4 °F /  1.9 °C 18.6 °F /  -7.4 °C 30.54 in /  1034.1 hPa NW 5.3 mph /  8.5 km/h 8.0 mph /  12.9 km/h 50 % 0.00 in /  0 mm
10:01 35.7 °F /  2.1 °C 18.4 °F /  -7.6 °C 30.54 in /  1034.1 hPa NE 5.3 mph /  8.5 km/h 11.5 mph /  18.5 km/h 49 % 0.00 in /  0 mm
10:06 36.0 °F /  2.2 °C 18.2 °F /  -7.7 °C 30.54 in /  1034.1 hPa NNW 3.2 mph /  5.1 km/h 5.8 mph /  9.3 km/h 48 % 0.00 in /  0 mm
10:11 36.2 °F /  2.3 °C 18.9 °F /  -7.3 °C 30.54 in /  1034.1 hPa North 3.6 mph /  5.8 km/h 5.8 mph /  9.3 km/h 49 % 0.00 in /  0 mm
10:16 36.3 °F /  2.4 °C 18.0 °F /  -7.8 °C 30.54 in /  1034.1 hPa West 3.1 mph /  5 km/h 4.6 mph /  7.4 km/h 47 % 0.00 in /  0 mm
10:21 36.5 °F /  2.5 °C 19.6 °F /  -6.9 °C 30.54 in /  1034.1 hPa NNE 3.1 mph /  5 km/h 4.6 mph /  7.4 km/h 50 % 0.00 in /  0 mm
10:27 36.6 °F /  2.6 °C 18.7 °F /  -7.4 °C 30.54 in /  1034.1 hPa NE 3.2 mph /  5.1 km/h 5.8 mph /  9.3 km/h 48 % 0.00 in /  0 mm
10:32 36.7 °F /  2.6 °C 18.8 °F /  -7.3 °C 30.54 in /  1034.1 hPa North 3.1 mph /  5 km/h 6.9 mph /  11.1 km/h 48 % 0.00 in /  0 mm
10:37 36.7 °F /  2.6 °C 19.3 °F /  -7.1 °C 30.54 in /  1034.1 hPa NNW 3.4 mph /  5.5 km/h 5.8 mph /  9.3 km/h 49 % 0.00 in /  0 mm
10:42 36.8 °F /  2.7 °C 19.9 °F /  -6.7 °C 30.54 in /  1034.1 hPa NNW 2.7 mph /  4.3 km/h 10.4 mph /  16.7 km/h 50 % 0.00 in /  0 mm
10:47 36.9 °F /  2.7 °C 19.5 °F /  -6.9 °C 30.54 in /  1034.1 hPa ENE 2.9 mph /  4.7 km/h 5.0 mph /  8 km/h 49 % 0.00 in /  0 mm
10:52 36.6 °F /  2.6 °C 18.2 °F /  -7.7 °C 30.54 in /  1034.1 hPa NNW 6.0 mph /  9.7 km/h 9.2 mph /  14.8 km/h 47 % 0.00 in /  0 mm
10:53 36.6 °F /  2.6 °C 17.7 °F /  -7.9 °C 30.54 in /  1034.1 hPa North 6.2 mph /  10 km/h 9.2 mph /  14.8 km/h 46 % 0.00 in /  0 mm
10:58 36.3 °F /  2.4 °C 18.0 °F /  -7.8 °C 30.54 in /  1034.1 hPa North 4.1 mph /  6.6 km/h 6.0 mph /  9.7 km/h 47 % 0.00 in /  0 mm
11:03 36.1 °F /  2.3 °C 18.8 °F /  -7.3 °C 30.54 in /  1034.1 hPa NW 2.8 mph /  4.5 km/h 5.0 mph /  8 km/h 49 % 0.00 in /  0 mm
11:08 35.8 °F /  2.1 °C 18.0 °F /  -7.8 °C 30.54 in /  1034.1 hPa NW 2.9 mph /  4.7 km/h 5.8 mph /  9.3 km/h 48 % 0.00 in /  0 mm
11:13 35.6 °F /  2 °C 17.8 °F /  -7.9 °C 30.54 in /  1034.1 hPa NNE 6.1 mph /  9.8 km/h 9.2 mph /  14.8 km/h 48 % 0.00 in /  0 mm
11:18 35.3 °F /  1.8 °C 18.0 °F /  -7.8 °C 30.54 in /  1034.1 hPa NNE 4.2 mph /  6.8 km/h 10.4 mph /  16.7 km/h 49 % 0.00 in /  0 mm
11:23 34.9 °F /  1.6 °C 18.1 °F /  -7.7 °C 30.54 in /  1034.1 hPa North 5.5 mph /  8.9 km/h 8.1 mph /  13 km/h 50 % 0.00 in /  0 mm
11:28 34.5 °F /  1.4 °C 17.8 °F /  -7.9 °C 30.53 in /  1033.7 hPa NNE 1.6 mph /  2.6 km/h 5.0 mph /  8 km/h 50 % 0.00 in /  0 mm
11:33 34.3 °F /  1.3 °C 17.6 °F /  -8 °C 30.53 in /  1033.7 hPa North 3.5 mph /  5.6 km/h 6.9 mph /  11.1 km/h 50 % 0.00 in /  0 mm
11:38 34.2 °F /  1.2 °C 17.5 °F /  -8.1 °C 30.52 in /  1033.4 hPa NNE 4.3 mph /  6.9 km/h 6.0 mph /  9.7 km/h 50 % 0.00 in /  0 mm
11:43 34.1 °F /  1.2 °C 17.8 °F /  -7.9 °C 30.53 in /  1033.7 hPa North 5.6 mph /  9 km/h 10.4 mph /  16.7 km/h 51 % 0.00 in /  0 mm
11:48 34.1 °F /  1.2 °C 17.8 °F /  -7.9 °C 30.53 in /  1033.7 hPa NNW 2.5 mph /  4 km/h 4.6 mph /  7.4 km/h 51 % 0.00 in /  0 mm
11:53 34.1 °F /  1.2 °C 17.8 °F /  -7.9 °C 30.53 in /  1033.7 hPa NW 0.8 mph /  1.3 km/h 4.6 mph /  7.4 km/h 51 % 0.00 in /  0 mm
11:58 34.3 °F /  1.3 °C 18.0 °F /  -7.8 °C 30.52 in /  1033.4 hPa NNE 2.7 mph /  4.3 km/h 5.8 mph /  9.3 km/h 51 % 0.00 in /  0 mm
12:04 34.3 °F /  1.3 °C 17.1 °F /  -8.3 °C 30.52 in /  1033.4 hPa NNW 4.3 mph /  6.9 km/h 8.1 mph /  13 km/h 49 % 0.00 in /  0 mm
12:08 34.3 °F /  1.3 °C 18.0 °F /  -7.8 °C 30.52 in /  1033.4 hPa WNW 2.0 mph /  3.2 km/h 6.0 mph /  9.7 km/h 51 % 0.00 in /  0 mm
12:14 34.3 °F /  1.3 °C 18.5 °F /  -7.5 °C 30.51 in /  1033.1 hPa NNW 2.8 mph /  4.5 km/h 5.8 mph /  9.3 km/h 52 % 0.00 in /  0 mm
12:19 34.3 °F /  1.3 °C 17.1 °F /  -8.3 °C 30.52 in /  1033.4 hPa NW 2.0 mph /  3.2 km/h 4.6 mph /  7.4 km/h 49 % 0.00 in /  0 mm
12:24 34.4 °F /  1.3 °C 17.7 °F /  -7.9 °C 30.52 in /  1033.4 hPa NNE 4.0 mph /  6.4 km/h 8.1 mph /  13 km/h 50 % 0.00 in /  0 mm
12:29 34.4 °F /  1.3 °C 17.7 °F /  -7.9 °C 30.52 in /  1033.4 hPa North 2.0 mph /  3.2 km/h 4.0 mph /  6.4 km/h 50 % 0.00 in /  0 mm
12:34 34.5 °F /  1.4 °C 17.8 °F /  -7.9 °C 30.51 in /  1033.1 hPa North 4.2 mph /  6.8 km/h 5.8 mph /  9.3 km/h 50 % 0.00 in /  0 mm
12:39 34.7 °F /  1.5 °C 17.9 °F /  -7.8 °C 30.51 in /  1033.1 hPa NNE 1.8 mph /  2.9 km/h 4.0 mph /  6.4 km/h 50 % 0.00 in /  0 mm
12:44 34.8 °F /  1.6 °C 18.0 °F /  -7.8 °C 30.52 in /  1033.4 hPa NNW 2.5 mph /  4 km/h 4.6 mph /  7.4 km/h 50 % 0.00 in /  0 mm
12:49 35.0 °F /  1.7 °C 18.7 °F /  -7.4 °C 30.51 in /  1033.1 hPa North 2.4 mph /  3.9 km/h 6.9 mph /  11.1 km/h 51 % 0.00 in /  0 mm
12:54 35.4 °F /  1.9 °C 19.0 °F /  -7.2 °C 30.50 in /  1032.7 hPa North 0.8 mph /  1.3 km/h 4.6 mph /  7.4 km/h 51 % 0.00 in /  0 mm
12:59 35.7 °F /  2.1 °C 19.3 °F /  -7.1 °C 30.50 in /  1032.7 hPa NNW 0.6 mph /  1 km/h 3.5 mph /  5.6 km/h 51 % 0.00 in /  0 mm
13:05 36.3 °F /  2.4 °C 19.9 °F /  -6.7 °C 30.50 in /  1032.7 hPa North 5.5 mph /  8.9 km/h 9.0 mph /  14.5 km/h 51 % 0.00 in /  0 mm
13:10 37.0 °F /  2.8 °C 19.1 °F /  -7.2 °C 30.50 in /  1032.7 hPa North 6.3 mph /  10.1 km/h 11.0 mph /  17.7 km/h 48 % 0.00 in /  0 mm
13:15 37.4 °F /  3 °C 19.0 °F /  -7.2 °C 30.49 in /  1032.4 hPa NNW 3.7 mph /  6 km/h 5.8 mph /  9.3 km/h 47 % 0.00 in /  0 mm
13:20 37.9 °F /  3.3 °C 18.9 °F /  -7.3 °C 30.49 in /  1032.4 hPa NNW 1.3 mph /  2.1 km/h 4.6 mph /  7.4 km/h 46 % 0.00 in /  0 mm
13:25 38.3 °F /  3.5 °C 19.3 °F /  -7.1 °C 30.49 in /  1032.4 hPa North 2.8 mph /  4.5 km/h 4.6 mph /  7.4 km/h 46 % 0.00 in /  0 mm
13:30 38.6 °F /  3.7 °C 18.5 °F /  -7.5 °C 30.49 in /  1032.4 hPa NW 2.5 mph /  4 km/h 2.5 mph /  4 km/h 44 % 0.00 in /  0 mm
13:35 39.0 °F /  3.9 °C 19.4 °F /  -7 °C 30.48 in /  1032.1 hPa NW 1.4 mph /  2.3 km/h 4.6 mph /  7.4 km/h 45 % 0.00 in /  0 mm
13:40 39.3 °F /  4.1 °C 20.2 °F /  -6.6 °C 30.49 in /  1032.4 hPa NNE 1.5 mph /  2.4 km/h 5.8 mph /  9.3 km/h 46 % 0.00 in /  0 mm
13:45 39.4 °F /  4.1 °C 19.3 °F /  -7.1 °C 30.48 in /  1032.1 hPa NW 1.4 mph /  2.3 km/h 3.5 mph /  5.6 km/h 44 % 0.00 in /  0 mm
13:50 39.4 °F /  4.1 °C 18.7 °F /  -7.4 °C 30.48 in /  1032.1 hPa North 4.3 mph /  6.9 km/h 6.9 mph /  11.1 km/h 43 % 0.00 in /  0 mm
13:55 39.5 °F /  4.2 °C 19.4 °F /  -7 °C 30.48 in /  1032.1 hPa North 0.9 mph /  1.4 km/h 2.3 mph /  3.7 km/h 44 % 0.00 in /  0 mm
14:00 39.3 °F /  4.1 °C 19.2 °F /  -7.1 °C 30.48 in /  1032.1 hPa North 3.5 mph /  5.6 km/h 8.1 mph /  13 km/h 44 % 0.00 in /  0 mm
14:05 39.2 °F /  4 °C 18.5 °F /  -7.5 °C 30.48 in /  1032.1 hPa ENE 1.4 mph /  2.3 km/h 3.5 mph /  5.6 km/h 43 % 0.00 in /  0 mm
14:10 38.9 °F /  3.8 °C 18.8 °F /  -7.3 °C 30.48 in /  1032.1 hPa NNE 2.4 mph /  3.9 km/h 4.6 mph /  7.4 km/h 44 % 0.00 in /  0 mm
14:15 38.7 °F /  3.7 °C 18.6 °F /  -7.4 °C 30.47 in /  1031.7 hPa North 5.8 mph /  9.3 km/h 9.2 mph /  14.8 km/h 44 % 0.00 in /  0 mm
14:20 38.4 °F /  3.6 °C 18.4 °F /  -7.6 °C 30.48 in /  1032.1 hPa ENE 1.4 mph /  2.3 km/h 4.6 mph /  7.4 km/h 44 % 0.00 in /  0 mm
14:25 38.1 °F /  3.4 °C 19.1 °F /  -7.2 °C 30.48 in /  1032.1 hPa North 3.7 mph /  6 km/h 9.2 mph /  14.8 km/h 46 % 0.00 in /  0 mm
14:30 37.9 °F /  3.3 °C 17.9 °F /  -7.8 °C 30.47 in /  1031.7 hPa North 3.5 mph /  5.6 km/h 5.8 mph /  9.3 km/h 44 % 0.00 in /  0 mm
14:35 37.7 °F /  3.2 °C 17.7 °F /  -7.9 °C 30.48 in /  1032.1 hPa NNE 1.9 mph /  3.1 km/h 4.6 mph /  7.4 km/h 44 % 0.00 in /  0 mm
14:40 37.6 °F /  3.1 °C 17.6 °F /  -8 °C 30.47 in /  1031.7 hPa NE 1.6 mph /  2.6 km/h 3.5 mph /  5.6 km/h 44 % 0.00 in /  0 mm
14:45 37.5 °F /  3.1 °C 18.1 °F /  -7.7 °C 30.48 in /  1032.1 hPa North 1.3 mph /  2.1 km/h 3.5 mph /  5.6 km/h 45 % 0.00 in /  0 mm
14:50 37.4 °F /  3 °C 18.5 °F /  -7.5 °C 30.48 in /  1032.1 hPa NE 1.1 mph /  1.8 km/h 3.5 mph /  5.6 km/h 46 % 0.00 in /  0 mm
14:55 37.3 °F /  2.9 °C 17.4 °F /  -8.1 °C 30.47 in /  1031.7 hPa NNE 1.6 mph /  2.6 km/h 2.3 mph /  3.7 km/h 44 % 0.00 in /  0 mm
15:00 37.3 °F /  2.9 °C 16.8 °F /  -8.4 °C 30.48 in /  1032.1 hPa ENE 2.6 mph /  4.2 km/h 3.5 mph /  5.6 km/h 43 % 0.00 in /  0 mm
15:05 37.2 °F /  2.9 °C 16.7 °F /  -8.5 °C 30.48 in /  1032.1 hPa ENE 0.7 mph /  1.1 km/h 1.2 mph /  1.9 km/h 43 % 0.00 in /  0 mm
15:10 37.1 °F /  2.8 °C 16.1 °F /  -8.8 °C 30.48 in /  1032.1 hPa NE 1.7 mph /  2.7 km/h 3.5 mph /  5.6 km/h 42 % 0.00 in /  0 mm
15:15 37.1 °F /  2.8 °C 16.6 °F /  -8.6 °C 30.48 in /  1032.1 hPa NE 1.2 mph /  1.9 km/h 1.2 mph /  1.9 km/h 43 % 0.00 in /  0 mm
15:20 37.1 °F /  2.8 °C 17.7 °F /  -7.9 °C 30.48 in /  1032.1 hPa ENE 2.2 mph /  3.5 km/h 3.5 mph /  5.6 km/h 45 % 0.00 in /  0 mm
15:22 37.1 °F /  2.8 °C 17.7 °F /  -7.9 °C 30.47 in /  1031.7 hPa ENE 1.1 mph /  1.8 km/h 3.5 mph /  5.6 km/h 45 % 0.00 in /  0 mm
15:27 37.1 °F /  2.8 °C 17.7 °F /  -7.9 °C 30.48 in /  1032.1 hPa North 0.4 mph /  0.6 km/h 4.6 mph /  7.4 km/h 45 % 0.00 in /  0 mm
15:32 37.0 °F /  2.8 °C 18.1 °F /  -7.7 °C 30.48 in /  1032.1 hPa North 0.3 mph /  0.5 km/h 1.2 mph /  1.9 km/h 46 % 0.00 in /  0 mm
15:37 37.0 °F /  2.8 °C 18.1 °F /  -7.7 °C 30.48 in /  1032.1 hPa North 0.4 mph /  0.6 km/h 2.0 mph /  3.2 km/h 46 % 0.00 in /  0 mm
15:42 36.9 °F /  2.7 °C 18.5 °F /  -7.5 °C 30.47 in /  1031.7 hPa NNE 1.4 mph /  2.3 km/h 3.5 mph /  5.6 km/h 47 % 0.00 in /  0 mm
15:47 36.8 °F /  2.7 °C 18.4 °F /  -7.6 °C 30.48 in /  1032.1 hPa NNE 2.2 mph /  3.5 km/h 3.5 mph /  5.6 km/h 47 % 0.00 in /  0 mm
15:52 36.7 °F /  2.6 °C 18.3 °F /  -7.6 °C 30.48 in /  1032.1 hPa Calm     47 % 0.00 in /  0 mm
15:54 36.7 °F /  2.6 °C 18.3 °F /  -7.6 °C 30.48 in /  1032.1 hPa NNE 0.4 mph /  0.6 km/h 2.3 mph /  3.7 km/h 47 % 0.00 in /  0 mm
15:59 36.6 °F /  2.6 °C 18.7 °F /  -7.4 °C 30.48 in /  1032.1 hPa NNE 1.6 mph /  2.6 km/h 3.5 mph /  5.6 km/h 48 % 0.00 in /  0 mm
16:04 36.4 °F /  2.4 °C 19.0 °F /  -7.2 °C 30.49 in /  1032.4 hPa Calm     49 % 0.00 in /  0 mm
16:09 36.3 °F /  2.4 °C 18.5 °F /  -7.5 °C 30.48 in /  1032.1 hPa NNE 1.2 mph /  1.9 km/h 2.3 mph /  3.7 km/h 48 % 0.00 in /  0 mm
16:14 36.2 °F /  2.3 °C 18.9 °F /  -7.3 °C 30.49 in /  1032.4 hPa NNE 0.8 mph /  1.3 km/h 3.0 mph /  4.8 km/h 49 % 0.00 in /  0 mm
16:20 36.1 °F /  2.3 °C 19.2 °F /  -7.1 °C 30.48 in /  1032.1 hPa Calm   1.2 mph /  1.9 km/h 50 % 0.00 in /  0 mm
16:25 36.0 °F /  2.2 °C 18.7 °F /  -7.4 °C 30.48 in /  1032.1 hPa Calm   1.2 mph /  1.9 km/h 49 % 0.00 in /  0 mm
16:30 35.9 °F /  2.2 °C 18.6 °F /  -7.4 °C 30.49 in /  1032.4 hPa North 1.4 mph /  2.3 km/h 3.5 mph /  5.6 km/h 49 % 0.00 in /  0 mm
16:35 35.7 °F /  2.1 °C 18.4 °F /  -7.6 °C 30.48 in /  1032.1 hPa North 0.7 mph /  1.1 km/h 4.0 mph /  6.4 km/h 49 % 0.00 in /  0 mm
16:40 35.7 °F /  2.1 °C 18.4 °F /  -7.6 °C 30.49 in /  1032.4 hPa NNW 0.5 mph /  0.8 km/h 3.0 mph /  4.8 km/h 49 % 0.00 in /  0 mm
16:45 35.6 °F /  2 °C 18.8 °F /  -7.3 °C 30.49 in /  1032.4 hPa NW 0.8 mph /  1.3 km/h 4.0 mph /  6.4 km/h 50 % 0.00 in /  0 mm
16:50 35.5 °F /  1.9 °C 18.7 °F /  -7.4 °C 30.49 in /  1032.4 hPa North 0.4 mph /  0.6 km/h 2.3 mph /  3.7 km/h 50 % 0.00 in /  0 mm
16:55 35.5 °F /  1.9 °C 18.7 °F /  -7.4 °C 30.49 in /  1032.4 hPa NNE 1.2 mph /  1.9 km/h 4.0 mph /  6.4 km/h 50 % 0.00 in /  0 mm
17:00 35.4 °F /  1.9 °C 19.0 °F /  -7.2 °C 30.50 in /  1032.7 hPa NNE 0.1 mph /  0.2 km/h   51 % 0.00 in /  0 mm
17:05 35.3 °F /  1.8 °C 19.4 °F /  -7 °C 30.49 in /  1032.4 hPa NW 0.4 mph /  0.6 km/h 1.2 mph /  1.9 km/h 52 % 0.00 in /  0 mm
17:10 35.3 °F /  1.8 °C 19.0 °F /  -7.2 °C 30.50 in /  1032.7 hPa Calm   1.2 mph /  1.9 km/h 51 % 0.00 in /  0 mm
17:16 35.2 °F /  1.8 °C 19.3 °F /  -7.1 °C 30.50 in /  1032.7 hPa Calm     52 % 0.00 in /  0 mm
17:19 35.2 °F /  1.8 °C 19.3 °F /  -7.1 °C 30.49 in /  1032.4 hPa Calm     52 % 0.00 in /  0 mm
17:24 35.1 °F /  1.7 °C 19.7 °F /  -6.8 °C 30.49 in /  1032.4 hPa Calm     53 % 0.00 in /  0 mm
17:26 35.1 °F /  1.7 °C 20.1 °F /  -6.6 °C 30.49 in /  1032.4 hPa Calm     54 % 0.00 in /  0 mm
17:31 35.0 °F /  1.7 °C 20.9 °F /  -6.2 °C 30.50 in /  1032.7 hPa Calm     56 % 0.00 in /  0 mm
17:36 34.9 °F /  1.6 °C 20.8 °F /  -6.2 °C 30.50 in /  1032.7 hPa Calm     56 % 0.00 in /  0 mm
17:41 34.8 °F /  1.6 °C 20.7 °F /  -6.3 °C 30.50 in /  1032.7 hPa Calm     56 % 0.00 in /  0 mm
17:46 34.7 °F /  1.5 °C 21.8 °F /  -5.7 °C 30.50 in /  1032.7 hPa Calm   1.0 mph /  1.6 km/h 59 % 0.00 in /  0 mm
17:51 34.5 °F /  1.4 °C 21.6 °F /  -5.8 °C 30.50 in /  1032.7 hPa Calm   1.0 mph /  1.6 km/h 59 % 0.00 in /  0 mm
17:56 34.4 °F /  1.3 °C 21.5 °F /  -5.8 °C 30.50 in /  1032.7 hPa Calm   1.0 mph /  1.6 km/h 59 % 0.00 in /  0 mm
18:01 34.1 °F /  1.2 °C 21.7 °F /  -5.7 °C 30.51 in /  1033.1 hPa NNW 0.7 mph /  1.1 km/h 2.3 mph /  3.7 km/h 60 % 0.00 in /  0 mm
18:06 34.0 °F /  1.1 °C 21.9 °F /  -5.6 °C 30.50 in /  1032.7 hPa Calm   2.0 mph /  3.2 km/h 61 % 0.00 in /  0 mm
18:11 33.7 °F /  0.9 °C 21.7 °F /  -5.7 °C 30.50 in /  1032.7 hPa Calm     61 % 0.00 in /  0 mm
18:16 33.5 °F /  0.8 °C 21.1 °F /  -6.1 °C 30.51 in /  1033.1 hPa NNW 0.2 mph /  0.3 km/h 1.2 mph /  1.9 km/h 60 % 0.00 in /  0 mm
18:21 33.4 °F /  0.8 °C 21.4 °F /  -5.9 °C 30.51 in /  1033.1 hPa Calm     61 % 0.00 in /  0 mm
18:26 33.2 °F /  0.7 °C 21.2 °F /  -6 °C 30.51 in /  1033.1 hPa Calm   1.2 mph /  1.9 km/h 61 % 0.00 in /  0 mm
18:31 33.0 °F /  0.6 °C 21.4 °F /  -5.9 °C 30.51 in /  1033.1 hPa NNW 1.1 mph /  1.8 km/h 2.3 mph /  3.7 km/h 62 % 0.00 in /  0 mm
18:36 32.8 °F /  0.4 °C 21.6 °F /  -5.8 °C 30.51 in /  1033.1 hPa Calm     63 % 0.00 in /  0 mm
18:41 32.7 °F /  0.4 °C 21.5 °F /  -5.8 °C 30.51 in /  1033.1 hPa Calm     63 % 0.00 in /  0 mm
18:46 32.5 °F /  0.3 °C 21.3 °F /  -5.9 °C 30.51 in /  1033.1 hPa Calm     63 % 0.00 in /  0 mm
18:51 32.4 °F /  0.2 °C 21.9 °F /  -5.6 °C 30.51 in /  1033.1 hPa NW 0.5 mph /  0.8 km/h 2.3 mph /  3.7 km/h 65 % 0.00 in /  0 mm
18:56 32.2 °F /  0.1 °C 21.7 °F /  -5.7 °C 30.52 in /  1033.4 hPa NW 0.5 mph /  0.8 km/h 1.2 mph /  1.9 km/h 65 % 0.00 in /  0 mm
19:01 32.1 °F /  0.1 °C 21.7 °F /  -5.7 °C 30.52 in /  1033.4 hPa Calm     65 % 0.00 in /  0 mm
19:06 31.9 °F /  -0.1 °C 21.5 °F /  -5.8 °C 30.52 in /  1033.4 hPa Calm     65 % 0.00 in /  0 mm
19:11 31.9 °F /  -0.1 °C 21.8 °F /  -5.7 °C 30.51 in /  1033.1 hPa Calm   1.2 mph /  1.9 km/h 66 % 0.00 in /  0 mm
19:16 31.7 °F /  -0.2 °C 21.6 °F /  -5.8 °C 30.51 in /  1033.1 hPa Calm     66 % 0.00 in /  0 mm
19:21 31.6 °F /  -0.2 °C 21.5 °F /  -5.8 °C 30.51 in /  1033.1 hPa Calm     66 % 0.00 in /  0 mm
19:26 31.5 °F /  -0.3 °C 21.4 °F /  -5.9 °C 30.51 in /  1033.1 hPa Calm     66 % 0.00 in /  0 mm
19:31 31.4 °F /  -0.3 °C 21.3 °F /  -5.9 °C 30.51 in /  1033.1 hPa NW 0.1 mph /  0.2 km/h 1.2 mph /  1.9 km/h 66 % 0.00 in /  0 mm
19:36 31.3 °F /  -0.4 °C 21.6 °F /  -5.8 °C 30.51 in /  1033.1 hPa Calm   1.2 mph /  1.9 km/h 67 % 0.00 in /  0 mm
19:41 31.2 °F /  -0.4 °C 21.5 °F /  -5.8 °C 30.51 in /  1033.1 hPa NW 0.1 mph /  0.2 km/h 1.2 mph /  1.9 km/h 67 % 0.00 in /  0 mm
19:46 31.2 °F /  -0.4 °C 21.5 °F /  -5.8 °C 30.51 in /  1033.1 hPa Calm   1.2 mph /  1.9 km/h 67 % 0.00 in /  0 mm
19:51 31.1 °F /  -0.5 °C 21.4 °F /  -5.9 °C 30.51 in /  1033.1 hPa Calm     67 % 0.00 in /  0 mm
19:56 31.0 °F /  -0.6 °C 21.7 °F /  -5.7 °C 30.52 in /  1033.4 hPa NW 0.4 mph /  0.6 km/h 2.3 mph /  3.7 km/h 68 % 0.00 in /  0 mm
20:01 30.9 °F /  -0.6 °C 21.6 °F /  -5.8 °C 30.52 in /  1033.4 hPa NW 0.2 mph /  0.3 km/h 2.3 mph /  3.7 km/h 68 % 0.00 in /  0 mm
20:06 30.9 °F /  -0.6 °C 21.9 °F /  -5.6 °C 30.52 in /  1033.4 hPa Calm   1.2 mph /  1.9 km/h 69 % 0.00 in /  0 mm
20:11 30.8 °F /  -0.7 °C 21.8 °F /  -5.7 °C 30.52 in /  1033.4 hPa Calm     69 % 0.00 in /  0 mm
20:16 30.8 °F /  -0.7 °C 21.8 °F /  -5.7 °C 30.51 in /  1033.1 hPa Calm     69 % 0.00 in /  0 mm
20:21 30.8 °F /  -0.7 °C 22.2 °F /  -5.4 °C 30.52 in /  1033.4 hPa Calm     70 % 0.00 in /  0 mm
20:26 30.8 °F /  -0.7 °C 22.2 °F /  -5.4 °C 30.52 in /  1033.4 hPa NNW 2.2 mph /  3.5 km/h 3.5 mph /  5.6 km/h 70 % 0.00 in /  0 mm
20:31 30.8 °F /  -0.7 °C 22.5 °F /  -5.3 °C 30.51 in /  1033.1 hPa Calm   1.2 mph /  1.9 km/h 71 % 0.00 in /  0 mm
20:37 30.7 °F /  -0.7 °C 22.4 °F /  -5.3 °C 30.51 in /  1033.1 hPa Calm   1.2 mph /  1.9 km/h 71 % 0.00 in /  0 mm
20:41 30.8 °F /  -0.7 °C 22.8 °F /  -5.1 °C 30.51 in /  1033.1 hPa NW 1.5 mph /  2.4 km/h 2.0 mph /  3.2 km/h 72 % 0.00 in /  0 mm
20:46 30.8 °F /  -0.7 °C 22.8 °F /  -5.1 °C 30.51 in /  1033.1 hPa WNW 0.1 mph /  0.2 km/h 1.2 mph /  1.9 km/h 72 % 0.00 in /  0 mm
20:52 30.8 °F /  -0.7 °C 22.8 °F /  -5.1 °C 30.51 in /  1033.1 hPa WNW 1.7 mph /  2.7 km/h 2.3 mph /  3.7 km/h 72 % 0.00 in /  0 mm
20:57 30.8 °F /  -0.7 °C 22.8 °F /  -5.1 °C 30.51 in /  1033.1 hPa WNW 0.2 mph /  0.3 km/h 3.5 mph /  5.6 km/h 72 % 0.00 in /  0 mm
21:02 30.8 °F /  -0.7 °C 22.8 °F /  -5.1 °C 30.50 in /  1032.7 hPa WNW 0.4 mph /  0.6 km/h 2.3 mph /  3.7 km/h 72 % 0.00 in /  0 mm
21:07 30.8 °F /  -0.7 °C 22.8 °F /  -5.1 °C 30.50 in /  1032.7 hPa WNW 0.8 mph /  1.3 km/h 2.3 mph /  3.7 km/h 72 % 0.00 in /  0 mm
21:12 30.8 °F /  -0.7 °C 22.8 °F /  -5.1 °C 30.49 in /  1032.4 hPa WNW 0.4 mph /  0.6 km/h 1.2 mph /  1.9 km/h 72 % 0.00 in /  0 mm
21:17 30.8 °F /  -0.7 °C 23.2 °F /  -4.9 °C 30.50 in /  1032.7 hPa Calm   1.2 mph /  1.9 km/h 73 % 0.00 in /  0 mm
21:22 30.7 °F /  -0.7 °C 23.1 °F /  -4.9 °C 30.50 in /  1032.7 hPa Calm     73 % 0.00 in /  0 mm
21:27 30.7 °F /  -0.7 °C 23.1 °F /  -4.9 °C 30.50 in /  1032.7 hPa WNW 0.5 mph /  0.8 km/h 1.0 mph /  1.6 km/h 73 % 0.00 in /  0 mm
21:32 30.6 °F /  -0.8 °C 23.0 °F /  -5 °C 30.50 in /  1032.7 hPa Calm     73 % 0.00 in /  0 mm
21:37 30.6 °F /  -0.8 °C 23.0 °F /  -5 °C 30.49 in /  1032.4 hPa Calm     73 % 0.00 in /  0 mm
21:42 30.5 °F /  -0.8 °C 22.9 °F /  -5.1 °C 30.49 in /  1032.4 hPa Calm     73 % 0.00 in /  0 mm
21:47 30.4 °F /  -0.9 °C 23.1 °F /  -4.9 °C 30.49 in /  1032.4 hPa Calm     74 % 0.00 in /  0 mm
21:52 30.3 °F /  -0.9 °C 23.0 °F /  -5 °C 30.49 in /  1032.4 hPa Calm   1.2 mph /  1.9 km/h 74 % 0.00 in /  0 mm
21:57 30.2 °F /  -1 °C 22.9 °F /  -5.1 °C 30.49 in /  1032.4 hPa Calm     74 % 0.00 in /  0 mm
22:02 30.1 °F /  -1.1 °C 22.8 °F /  -5.1 °C 30.49 in /  1032.4 hPa Calm     74 % 0.00 in /  0 mm
22:07 30.0 °F /  -1.1 °C 22.7 °F /  -5.2 °C 30.49 in /  1032.4 hPa WNW 0.4 mph /  0.6 km/h 1.2 mph /  1.9 km/h 74 % 0.00 in /  0 mm
22:12 29.9 °F /  -1.2 °C 22.6 °F /  -5.2 °C 30.49 in /  1032.4 hPa Calm     74 % 0.00 in /  0 mm
22:17 29.8 °F /  -1.2 °C 22.5 °F /  -5.3 °C 30.49 in /  1032.4 hPa WNW 0.9 mph /  1.4 km/h 2.3 mph /  3.7 km/h 74 % 0.00 in /  0 mm
22:22 29.8 °F /  -1.2 °C 22.8 °F /  -5.1 °C 30.26 in /  1024.6 hPa WNW 0.3 mph /  0.5 km/h   75 % 0.00 in /  0 mm
22:23 29.7 °F /  -1.3 °C 22.7 °F /  -5.2 °C 30.26 in /  1024.6 hPa WNW 0.6 mph /  1 km/h 1.0 mph /  1.6 km/h 75 % 0.00 in /  0 mm
22:25 29.7 °F /  -1.3 °C 22.7 °F /  -5.2 °C 30.48 in /  1032.1 hPa WNW 0.3 mph /  0.5 km/h 1.2 mph /  1.9 km/h 75 % 0.00 in /  0 mm
22:29 29.7 °F /  -1.3 °C 22.7 °F /  -5.2 °C 30.26 in /  1024.6 hPa Calm   1.2 mph /  1.9 km/h 75 % 0.00 in /  0 mm
22:30 29.6 °F /  -1.3 °C 22.6 °F /  -5.2 °C 30.48 in /  1032.1 hPa Calm     75 % 0.00 in /  0 mm
22:35 29.6 °F /  -1.3 °C 23.0 °F /  -5 °C 30.49 in /  1032.4 hPa Calm     76 % 0.00 in /  0 mm
22:40 29.5 °F /  -1.4 °C 22.9 °F /  -5.1 °C 30.49 in /  1032.4 hPa Calm     76 % 0.00 in /  0 mm
22:45 29.4 °F /  -1.4 °C 22.8 °F /  -5.1 °C 30.48 in /  1032.1 hPa WNW 0.3 mph /  0.5 km/h 1.2 mph /  1.9 km/h 76 % 0.00 in /  0 mm
22:50 29.4 °F /  -1.4 °C 22.8 °F /  -5.1 °C 30.48 in /  1032.1 hPa Calm     76 % 0.00 in /  0 mm
22:53 29.4 °F /  -1.4 °C 23.1 °F /  -4.9 °C 30.48 in /  1032.1 hPa Calm     77 % 0.00 in /  0 mm
22:58 29.3 °F /  -1.5 °C 23.0 °F /  -5 °C 30.48 in /  1032.1 hPa Calm     77 % 0.00 in /  0 mm
23:03 29.3 °F /  -1.5 °C 23.0 °F /  -5 °C 30.48 in /  1032.1 hPa Calm     77 % 0.00 in /  0 mm
23:08 29.3 °F /  -1.5 °C 23.3 °F /  -4.8 °C 30.48 in /  1032.1 hPa WNW 1.1 mph /  1.8 km/h 2.3 mph /  3.7 km/h 78 % 0.00 in /  0 mm
23:13 29.3 °F /  -1.5 °C 23.3 °F /  -4.8 °C 30.48 in /  1032.1 hPa Calm   1.0 mph /  1.6 km/h 78 % 0.00 in /  0 mm
23:18 29.2 °F /  -1.6 °C 23.2 °F /  -4.9 °C 30.48 in /  1032.1 hPa Calm   1.0 mph /  1.6 km/h 78 % 0.00 in /  0 mm
23:23 29.2 °F /  -1.6 °C 23.5 °F /  -4.7 °C 30.48 in /  1032.1 hPa Calm     79 % 0.00 in /  0 mm
23:28 29.2 °F /  -1.6 °C 23.5 °F /  -4.7 °C 30.49 in /  1032.4 hPa WNW 0.8 mph /  1.3 km/h 2.3 mph /  3.7 km/h 79 % 0.00 in /  0 mm
23:34 29.2 °F /  -1.6 °C 23.8 °F /  -4.6 °C 30.49 in /  1032.4 hPa WNW 1.1 mph /  1.8 km/h 2.3 mph /  3.7 km/h 80 % 0.00 in /  0 mm
23:39 29.3 °F /  -1.5 °C 24.2 °F /  -4.3 °C 30.49 in /  1032.4 hPa West 1.5 mph /  2.4 km/h 3.5 mph /  5.6 km/h 81 % 0.00 in /  0 mm
23:44 29.3 °F /  -1.5 °C 24.2 °F /  -4.3 °C 30.50 in /  1032.7 hPa West 1.0 mph /  1.6 km/h 2.3 mph /  3.7 km/h 81 % 0.00 in /  0 mm
23:49 29.4 °F /  -1.4 °C 24.6 °F /  -4.1 °C 30.50 in /  1032.7 hPa West 1.4 mph /  2.3 km/h 3.5 mph /  5.6 km/h 82 % 0.00 in /  0 mm
23:54 29.6 °F /  -1.3 °C 24.8 °F /  -4 °C 30.50 in /  1032.7 hPa West 0.6 mph /  1 km/h 3.5 mph /  5.6 km/h 82 % 0.00 in /  0 mm
23:59 29.7 °F /  -1.3 °C 24.9 °F /  -3.9 °C 30.49 in /  1032.4 hPa West 0.1 mph /  0.2 km/h 3.5 mph /  5.6 km/h 82 % 0.00 in /  0 mm
Crab Meadow Weather
Compliments of Weather Underground - 3 mb

Script developed by  Jim McMurry - jmcmurry@mwt.net Adapted for the template by  Wim van der Kuil - Leuven-Template.eu

Astronomy: One day on Uranus is 18 hours